createdAt,value
2023-03-11T00:02:22.588Z,0
2023-03-11T00:05:10.580Z,0
2023-03-11T00:07:58.374Z,0
2023-03-11T00:10:46.131Z,0
2023-03-11T00:13:33.987Z,0
2023-03-11T00:16:21.628Z,0
2023-03-11T00:19:09.455Z,0
2023-03-11T00:21:57.030Z,0
2023-03-11T00:24:44.760Z,0
2023-03-11T00:27:32.417Z,0
2023-03-11T00:30:20.230Z,0
2023-03-11T00:33:08.158Z,0
2023-03-11T00:35:55.810Z,0
2023-03-11T00:38:43.803Z,0
2023-03-11T00:41:31.923Z,0
2023-03-11T00:44:19.823Z,0
2023-03-11T00:47:07.764Z,0
2023-03-11T00:49:55.574Z,0
2023-03-11T00:52:43.255Z,0.1
2023-03-11T00:55:31.001Z,0.1
2023-03-11T00:58:18.721Z,0.1
2023-03-11T01:01:06.626Z,0.2
2023-03-11T01:03:54.655Z,0.2
2023-03-11T01:06:45.476Z,0.2
2023-03-11T01:09:33.790Z,0.2
2023-03-11T01:12:21.476Z,0.2
2023-03-11T01:15:09.211Z,0.2
2023-03-11T01:17:56.963Z,0.2
2023-03-11T01:20:44.771Z,0.3
2023-03-11T01:23:32.616Z,0.3
2023-03-11T01:26:20.494Z,0.2
2023-03-11T01:29:08.374Z,0.2
2023-03-11T01:31:56.517Z,0.2
2023-03-11T01:34:44.283Z,0.2
2023-03-11T01:37:32.353Z,0.2
2023-03-11T01:40:20.070Z,0.2
2023-03-11T01:43:07.964Z,0.2
2023-03-11T01:45:55.620Z,0.1
2023-03-11T01:48:43.372Z,0.1
2023-03-11T01:51:31.177Z,0
2023-03-11T01:54:19.088Z,0
2023-03-11T01:57:06.750Z,0
2023-03-11T01:59:54.652Z,-0.1
2023-03-11T02:02:42.382Z,-0.1
2023-03-11T02:05:30.525Z,-0.2
2023-03-11T02:08:18.258Z,-0.2
2023-03-11T02:11:06.219Z,-0.3
2023-03-11T02:13:53.933Z,-0.3
2023-03-11T02:16:41.918Z,-0.3
2023-03-11T02:19:29.655Z,-0.4
2023-03-11T02:22:17.460Z,-0.4
2023-03-11T02:25:05.297Z,-0.5
2023-03-11T02:27:53.413Z,-0.5
2023-03-11T02:30:41.149Z,-0.5
2023-03-11T02:33:29.065Z,-0.6
2023-03-11T02:36:16.916Z,-0.6
2023-03-11T02:39:04.699Z,-0.6
2023-03-11T02:41:52.435Z,-0.6
2023-03-11T02:44:40.269Z,-0.7
2023-03-11T02:47:28.098Z,-0.7
2023-03-11T02:50:15.799Z,-0.7
2023-03-11T02:53:03.660Z,-0.7
2023-03-11T02:55:51.403Z,-0.7
2023-03-11T02:58:39.252Z,-0.8
2023-03-11T03:01:27.123Z,-0.9
2023-03-11T03:04:15.035Z,-0.9
2023-03-11T03:07:03.025Z,-0.9
2023-03-11T03:09:50.768Z,-0.9
2023-03-11T03:12:38.500Z,-1
2023-03-11T03:15:26.206Z,-1
2023-03-11T03:18:14.033Z,-1
2023-03-11T03:21:01.698Z,-1
2023-03-11T03:23:49.582Z,-1
2023-03-11T03:26:37.315Z,-1
2023-03-11T03:29:25.150Z,-1
2023-03-11T03:32:13.019Z,-1.1
2023-03-11T03:35:00.918Z,-1
2023-03-11T03:37:48.862Z,-1.1
2023-03-11T03:40:36.742Z,-1.1
2023-03-11T03:43:24.499Z,-1.1
2023-03-11T03:46:12.480Z,-1.1
2023-03-11T03:49:00.367Z,-1.1
2023-03-11T03:51:48.179Z,-1.2
2023-03-11T03:54:36.017Z,-1.2
2023-03-11T03:57:23.752Z,-1.3
2023-03-11T04:00:11.428Z,-1.3
2023-03-11T04:02:59.350Z,-1.3
2023-03-11T04:05:47.484Z,-1.3
2023-03-11T04:08:35.404Z,-1.3
2023-03-11T04:11:23.183Z,-1.3
2023-03-11T04:14:11.013Z,-1.3
2023-03-11T04:16:58.987Z,-1.4
2023-03-11T04:19:46.938Z,-1.4
2023-03-11T04:22:34.753Z,-1.4
2023-03-11T04:25:22.662Z,-1.4
2023-03-11T04:28:10.387Z,-1.4
2023-03-11T04:30:58.347Z,-1.4
2023-03-11T04:33:46.470Z,-1.4
2023-03-11T04:36:34.253Z,-1.4
2023-03-11T04:39:22.106Z,-1.5
2023-03-11T04:42:09.961Z,-1.5
2023-03-11T04:44:57.658Z,-1.5
2023-03-11T04:47:45.579Z,-1.5
2023-03-11T04:50:33.335Z,-1.5
2023-03-11T04:53:21.093Z,-1.5
2023-03-11T04:56:08.912Z,-1.5
2023-03-11T04:58:56.721Z,-1.5
2023-03-11T05:01:44.606Z,-1.5
2023-03-11T05:04:32.694Z,-1.4
2023-03-11T05:07:20.628Z,-1.3
2023-03-11T05:10:08.385Z,-1.3
2023-03-11T05:12:56.219Z,-1.2
2023-03-11T05:15:44.153Z,-1.1
2023-03-11T05:18:32.014Z,-1.1
2023-03-11T05:21:19.899Z,-1.1
2023-03-11T05:24:07.586Z,-1.1
2023-03-11T05:26:55.463Z,-1.1
2023-03-11T05:29:43.374Z,-1.1
2023-03-11T05:32:31.367Z,-1.1
2023-03-11T05:35:19.288Z,-1.1
2023-03-11T05:38:07.107Z,-1.1
2023-03-11T05:40:54.895Z,-1.1
2023-03-11T05:43:42.679Z,-1.2
2023-03-11T05:46:30.538Z,-1.2
2023-03-11T05:49:18.605Z,-1.3
2023-03-11T05:52:06.389Z,-1.3
2023-03-11T05:54:54.272Z,-1.3
2023-03-11T05:57:42.119Z,-1.3
2023-03-11T06:00:29.940Z,-1.3
2023-03-11T06:03:17.745Z,-1.2
2023-03-11T06:06:05.713Z,-1.2
2023-03-11T06:08:53.387Z,-1.2
2023-03-11T06:11:41.296Z,-1.1
2023-03-11T06:14:29.004Z,-1.1
2023-03-11T06:17:16.699Z,-1.1
2023-03-11T06:20:04.622Z,-1.1
2023-03-11T06:22:52.818Z,-1.1
2023-03-11T06:25:40.544Z,-1.2
2023-03-11T06:28:28.388Z,-1.2
2023-03-11T06:31:16.185Z,-1.2
2023-03-11T06:34:04.263Z,-1.1
2023-03-11T06:36:52.193Z,-1.1
2023-03-11T06:39:40.185Z,-1.1
2023-03-11T06:42:28.064Z,-1
2023-03-11T06:45:16.002Z,-0.7
2023-03-11T06:48:03.629Z,-0.2
2023-03-11T06:50:51.414Z,0.6
2023-03-11T06:53:39.273Z,1.4
2023-03-11T06:56:27.290Z,2.3
2023-03-11T06:59:15.223Z,3.3
2023-03-11T07:02:03.190Z,4.1
2023-03-11T07:04:51.155Z,4.7
2023-03-11T07:07:39.081Z,5.5
2023-03-11T07:10:26.891Z,6
2023-03-11T07:13:15.375Z,6.5
2023-03-11T07:16:03.048Z,7
2023-03-11T07:18:50.844Z,7.5
2023-03-11T07:21:38.569Z,7.5
2023-03-11T07:24:26.407Z,7.3
2023-03-11T07:27:14.313Z,7.7
2023-03-11T07:30:02.896Z,8.2
2023-03-11T07:32:50.840Z,8.4
2023-03-11T07:35:38.761Z,8.5
2023-03-11T07:38:26.499Z,8.9
2023-03-11T07:41:14.319Z,9.7
2023-03-11T07:44:02.284Z,10.5
2023-03-11T07:46:50.307Z,10.6
2023-03-11T07:49:38.137Z,10.4
2023-03-11T07:52:26.021Z,10.3
2023-03-11T07:55:13.759Z,10.3
2023-03-11T07:58:01.549Z,10.9
2023-03-11T08:00:49.629Z,11.5
2023-03-11T08:03:37.495Z,11.9
2023-03-11T08:06:25.197Z,11.7
2023-03-11T08:09:13.046Z,11.1
2023-03-11T08:12:00.763Z,11.3
2023-03-11T08:14:48.549Z,11.9
2023-03-11T08:17:36.218Z,12.5
2023-03-11T08:20:24.057Z,13.1
2023-03-11T08:23:25.897Z,13.3
2023-03-11T08:26:13.549Z,13
2023-03-11T08:29:01.363Z,13.3
2023-03-11T08:31:49.271Z,14.2
2023-03-11T08:34:37.133Z,14.6
2023-03-11T08:37:25.087Z,14.4
2023-03-11T08:40:12.923Z,14.9
2023-03-11T08:43:00.612Z,15.6
2023-03-11T08:45:48.441Z,16.2
2023-03-11T08:48:36.376Z,16.7
2023-03-11T08:51:24.208Z,16.8
2023-03-11T08:54:12.198Z,16.6
2023-03-11T08:56:59.984Z,16.9
2023-03-11T08:59:47.823Z,16.6
2023-03-11T09:02:35.560Z,17
2023-03-11T09:05:23.890Z,18
2023-03-11T09:08:11.697Z,18.8
2023-03-11T09:10:59.461Z,19.5
2023-03-11T09:13:47.142Z,19.6
2023-03-11T09:16:35.066Z,19.7
2023-03-11T09:19:22.870Z,19.6
2023-03-11T09:22:10.648Z,19.3
2023-03-11T09:24:58.296Z,19.3
2023-03-11T09:27:46.160Z,19.2
2023-03-11T09:30:33.949Z,18.9
2023-03-11T09:33:21.828Z,19
2023-03-11T09:36:09.558Z,19.1
2023-03-11T09:38:57.497Z,18.7
2023-03-11T09:41:57.362Z,18.5
2023-03-11T09:44:46.988Z,16.8
2023-03-11T09:47:34.691Z,14.7
2023-03-11T09:50:22.565Z,13.5
2023-03-11T09:53:10.301Z,13.5
2023-03-11T09:55:58.025Z,13.9
2023-03-11T09:58:45.725Z,13.7
2023-03-11T10:01:33.555Z,13.3
2023-03-11T10:04:21.236Z,13.1
2023-03-11T10:07:08.995Z,13.6
2023-03-11T10:09:56.654Z,14.3
2023-03-11T10:12:44.412Z,13.8
2023-03-11T10:15:32.209Z,13.5
2023-03-11T10:18:20.073Z,14.4
2023-03-11T10:21:07.764Z,15.8
2023-03-11T10:23:55.644Z,17.1
2023-03-11T10:26:43.354Z,18.2
2023-03-11T10:29:31.169Z,18.9
2023-03-11T10:32:19.046Z,18.9
2023-03-11T10:35:06.942Z,18.1
2023-03-11T10:38:01.573Z,16.8
2023-03-11T10:40:51.976Z,15.3
2023-03-11T10:43:39.594Z,14
2023-03-11T10:46:27.332Z,12.9
2023-03-11T10:49:15.089Z,12.3
2023-03-11T10:52:03.052Z,12.3
2023-03-11T10:54:50.878Z,12.9
2023-03-11T10:57:38.660Z,13.3
2023-03-11T11:00:26.394Z,14
2023-03-11T11:03:13.993Z,14.7
2023-03-11T11:06:01.651Z,14.5
2023-03-11T11:08:49.519Z,14.5
2023-03-11T11:11:37.177Z,15.1
2023-03-11T11:14:24.936Z,15.7
2023-03-11T11:17:12.693Z,15.8
2023-03-11T11:20:00.437Z,15.5
2023-03-11T11:22:48.078Z,15
2023-03-11T11:25:35.893Z,14.4
2023-03-11T11:28:23.518Z,13.5
2023-03-11T11:31:11.299Z,12.6
2023-03-11T11:33:59.083Z,12.3
2023-03-11T11:36:46.820Z,12.9
2023-03-11T11:39:34.514Z,13.9
2023-03-11T11:42:22.348Z,14.5
2023-03-11T11:45:10.126Z,14.1
2023-03-11T11:47:57.734Z,13.4
2023-03-11T11:50:45.465Z,12.9
2023-03-11T11:53:33.258Z,12.5
2023-03-11T11:56:20.906Z,12.5
2023-03-11T11:59:08.714Z,12.5
2023-03-11T12:01:56.376Z,12.6
2023-03-11T12:04:44.074Z,12.5
2023-03-11T12:07:31.708Z,12.5
2023-03-11T12:10:26.072Z,12.2
2023-03-11T12:13:13.837Z,12.3
2023-03-11T12:16:01.670Z,12.9
2023-03-11T12:18:49.398Z,12.3
2023-03-11T12:21:37.123Z,11.7
2023-03-11T12:24:24.800Z,10.9
2023-03-11T12:27:12.587Z,10
2023-03-11T12:30:00.360Z,9.2
2023-03-11T12:32:48.412Z,8.5
2023-03-11T12:35:36.292Z,8.3
2023-03-11T12:38:24.336Z,8.3
2023-03-11T12:41:12.067Z,8.2
2023-03-11T12:43:59.761Z,8.8
2023-03-11T12:46:47.598Z,9.6
2023-03-11T12:49:35.579Z,9.8
2023-03-11T12:52:23.306Z,10.1
2023-03-11T12:55:11.188Z,10.1
2023-03-11T12:57:58.929Z,10.4
2023-03-11T13:00:46.701Z,10.6
2023-03-11T13:03:34.520Z,10.1
2023-03-11T13:06:22.279Z,9.8
2023-03-11T13:09:10.009Z,10.1
2023-03-11T13:11:57.826Z,10.5
2023-03-11T13:14:45.415Z,11.1
2023-03-11T13:17:33.097Z,11.9
2023-03-11T13:20:20.812Z,12.5
2023-03-11T13:23:08.515Z,13.1
2023-03-11T13:25:56.143Z,13.4
2023-03-11T13:28:43.888Z,13.9
2023-03-11T13:31:31.709Z,14.2
2023-03-11T13:34:19.438Z,14.4
2023-03-11T13:37:07.204Z,13.8
2023-03-11T13:39:54.921Z,13.1
2023-03-11T13:42:42.595Z,13.5
2023-03-11T13:45:30.400Z,14.2
2023-03-11T13:48:18.225Z,14.7
2023-03-11T13:51:05.932Z,14.8
2023-03-11T13:53:53.599Z,15.4
2023-03-11T13:56:41.398Z,15.3
2023-03-11T13:59:29.044Z,15.4
2023-03-11T14:02:16.645Z,15
2023-03-11T14:05:04.321Z,14.9
2023-03-11T14:07:52.024Z,15.4
2023-03-11T14:10:39.707Z,15.2
2023-03-11T14:13:27.311Z,14.6
2023-03-11T14:16:14.998Z,13.7
2023-03-11T14:19:02.790Z,13.3
2023-03-11T14:21:50.424Z,12.8
2023-03-11T14:24:38.307Z,12.2
2023-03-11T14:27:26.068Z,12.5
2023-03-11T14:30:13.765Z,13.1
2023-03-11T14:33:01.668Z,13.5
2023-03-11T14:35:49.376Z,13.3
2023-03-11T14:38:36.997Z,13.1
2023-03-11T14:41:24.702Z,13.3
2023-03-11T14:44:12.350Z,12.8
2023-03-11T14:46:59.922Z,12.2
2023-03-11T14:49:47.636Z,12.3
2023-03-11T14:52:35.314Z,12.5
2023-03-11T14:55:22.939Z,13.1
2023-03-11T14:58:10.780Z,13.5
2023-03-11T15:00:58.545Z,12.9
2023-03-11T15:03:46.442Z,12.5
2023-03-11T15:06:34.025Z,12.3
2023-03-11T15:09:21.666Z,12.5
2023-03-11T15:12:09.151Z,12.5
2023-03-11T15:14:56.685Z,12.3
2023-03-11T15:18:01.259Z,11.7
2023-03-11T15:20:48.960Z,11.3
2023-03-11T15:23:36.549Z,11.1
2023-03-11T15:26:24.276Z,10.8
2023-03-11T15:29:11.915Z,10.5
2023-03-11T15:31:59.793Z,10.4
2023-03-11T15:34:47.564Z,10
2023-03-11T15:37:35.455Z,9.2
2023-03-11T15:40:26.085Z,8.8
2023-03-11T15:43:32.071Z,8.8
2023-03-11T15:46:19.766Z,8.8
2023-03-11T15:49:07.533Z,8.6
2023-03-11T15:51:55.189Z,8.6
2023-03-11T15:54:45.669Z,8.7
2023-03-11T15:57:43.541Z,8.8
2023-03-11T16:00:31.152Z,8.6
2023-03-11T16:03:18.843Z,8.7
2023-03-11T16:06:06.588Z,8.8
2023-03-11T16:08:54.529Z,8.7
2023-03-11T16:11:42.399Z,8.6
2023-03-11T16:14:30.041Z,8.5
2023-03-11T16:17:17.756Z,8.3
2023-03-11T16:20:05.417Z,8.4
2023-03-11T16:22:53.110Z,8.4
2023-03-11T16:25:40.764Z,8.5
2023-03-11T16:28:28.576Z,8.6
2023-03-11T16:31:16.302Z,8.5
2023-03-11T16:34:04.197Z,8.4
2023-03-11T16:36:51.784Z,8.2
2023-03-11T16:39:39.670Z,8.1
2023-03-11T16:42:27.364Z,8
2023-03-11T16:45:15.133Z,7.8
2023-03-11T16:48:02.891Z,7.7
2023-03-11T16:50:50.648Z,7.7
2023-03-11T16:53:38.216Z,7.8
2023-03-11T16:56:25.946Z,7.8
2023-03-11T16:59:13.592Z,7.6
2023-03-11T17:02:01.486Z,7.3
2023-03-11T17:04:49.411Z,7.1
2023-03-11T17:07:39.381Z,7
2023-03-11T17:10:27.741Z,6.9
2023-03-11T17:13:17.806Z,6.7
2023-03-11T17:16:07.037Z,6.5
2023-03-11T17:18:55.137Z,6.2
2023-03-11T17:21:43.069Z,5.9
2023-03-11T17:24:30.959Z,5.7
2023-03-11T17:27:18.756Z,5.5
2023-03-11T17:30:06.716Z,5.3
2023-03-11T17:32:54.616Z,5.2
2023-03-11T17:35:42.794Z,5.1
2023-03-11T17:38:30.742Z,5
2023-03-11T17:41:18.618Z,5
2023-03-11T17:44:06.466Z,4.9
2023-03-11T17:46:54.464Z,4.9
2023-03-11T17:49:42.253Z,4.8
2023-03-11T17:52:30.190Z,4.7
2023-03-11T17:55:18.009Z,4.7
2023-03-11T17:58:13.614Z,4.5
2023-03-11T18:01:01.247Z,4.5
2023-03-11T18:03:49.152Z,4.4
2023-03-11T18:06:37.264Z,4.2
2023-03-11T18:09:25.214Z,3.9
2023-03-11T18:12:12.944Z,3.7
2023-03-11T18:15:00.720Z,3.5
2023-03-11T18:17:48.683Z,3.3
2023-03-11T18:20:36.496Z,3.3
2023-03-11T18:23:24.347Z,3.1
2023-03-11T18:26:12.257Z,3.1
2023-03-11T18:28:59.984Z,3.1
2023-03-11T18:31:48.197Z,3.1
2023-03-11T18:34:36.121Z,3.1
2023-03-11T18:37:24.014Z,3
2023-03-11T18:40:11.970Z,2.9
2023-03-11T18:42:59.880Z,2.8
2023-03-11T18:45:47.791Z,2.7
2023-03-11T18:48:35.756Z,2.5
2023-03-11T18:51:23.439Z,2.3
2023-03-11T18:54:11.433Z,2.2
2023-03-11T18:56:59.384Z,2.1
2023-03-11T18:59:47.140Z,2.1
2023-03-11T19:02:34.931Z,2
2023-03-11T19:05:22.975Z,2
2023-03-11T19:08:10.759Z,1.9
2023-03-11T19:10:58.693Z,1.8
2023-03-11T19:13:47.630Z,1.7
2023-03-11T19:16:36.003Z,1.6
2023-03-11T19:19:23.887Z,1.5
2023-03-11T19:22:11.619Z,1.4
2023-03-11T19:24:59.506Z,1.4
2023-03-11T19:27:47.264Z,1.3
2023-03-11T19:30:35.195Z,1.4
2023-03-11T19:33:23.263Z,1.4
2023-03-11T19:36:11.079Z,1.4
2023-03-11T19:38:58.952Z,1.4
2023-03-11T19:41:46.662Z,1.4
2023-03-11T19:44:34.488Z,1.4
2023-03-11T19:47:22.254Z,1.4
2023-03-11T19:50:09.959Z,1.4
2023-03-11T19:52:57.744Z,1.3
2023-03-11T19:55:45.627Z,1.4
2023-03-11T19:58:33.365Z,1.4
2023-03-11T20:01:21.050Z,1.4
2023-03-11T20:04:08.914Z,1.5
2023-03-11T20:06:56.921Z,1.6
2023-03-11T20:09:44.701Z,1.7
2023-03-11T20:12:32.602Z,1.7
2023-03-11T20:15:20.415Z,1.7
2023-03-11T20:18:08.287Z,1.6
2023-03-11T20:20:56.060Z,1.4
2023-03-11T20:23:43.930Z,1.4
2023-03-11T20:26:31.572Z,1.2
2023-03-11T20:29:19.344Z,1.2
2023-03-11T20:32:07.214Z,1.2
2023-03-11T20:34:54.831Z,1.2
2023-03-11T20:37:42.851Z,1.2
2023-03-11T20:40:30.952Z,1.2
2023-03-11T20:43:18.695Z,1.2
2023-03-11T20:46:06.577Z,1.2
2023-03-11T20:48:54.519Z,1.2
2023-03-11T20:51:42.270Z,1.2
2023-03-11T20:54:30.015Z,1.2
2023-03-11T20:57:17.936Z,1.2
2023-03-11T21:00:05.616Z,1.2
2023-03-11T21:02:53.688Z,1.1
2023-03-11T21:05:41.797Z,1.1
2023-03-11T21:08:29.690Z,1.1
2023-03-11T21:11:17.689Z,1.1
2023-03-11T21:14:05.707Z,1
2023-03-11T21:16:53.565Z,1
2023-03-11T21:19:41.700Z,1
2023-03-11T21:22:29.786Z,0.9
2023-03-11T21:25:17.704Z,0.8
2023-03-11T21:28:05.515Z,0.8
2023-03-11T21:30:53.167Z,0.8
2023-03-11T21:33:41.524Z,0.8
2023-03-11T21:36:29.885Z,0.8
2023-03-11T21:39:17.850Z,0.8
2023-03-11T21:42:05.860Z,0.8
2023-03-11T21:44:53.736Z,0.8
2023-03-11T21:47:41.661Z,0.8
2023-03-11T21:50:29.725Z,0.8
2023-03-11T21:53:17.472Z,0.7
2023-03-11T21:56:05.383Z,0.7
2023-03-11T21:58:53.306Z,0.6
2023-03-11T22:01:41.627Z,0.7
2023-03-11T22:04:29.803Z,0.8
2023-03-11T22:07:17.668Z,0.8
2023-03-11T22:10:05.422Z,0.8
2023-03-11T22:12:53.237Z,0.8
2023-03-11T22:15:41.144Z,0.8
2023-03-11T22:18:29.303Z,0.8
2023-03-11T22:21:17.511Z,0.8
2023-03-11T22:24:05.349Z,0.9
2023-03-11T22:26:53.067Z,1
2023-03-11T22:29:42.017Z,1
2023-03-11T22:32:29.922Z,1
2023-03-11T22:35:17.841Z,1
2023-03-11T22:38:05.602Z,1
2023-03-11T22:40:53.238Z,1
2023-03-11T22:43:41.059Z,1
2023-03-11T22:46:30.655Z,1
2023-03-11T22:49:18.410Z,1
2023-03-11T22:52:06.072Z,1
2023-03-11T22:54:54.041Z,1
2023-03-11T22:57:41.818Z,0.9
2023-03-11T23:00:29.967Z,0.9
2023-03-11T23:03:17.727Z,0.8
2023-03-11T23:06:05.423Z,0.9
2023-03-11T23:08:53.396Z,0.8
2023-03-11T23:11:41.300Z,0.8
2023-03-11T23:14:42.161Z,0.8
2023-03-11T23:17:33.100Z,0.8
2023-03-11T23:20:20.779Z,0.8
2023-03-11T23:23:08.405Z,0.8
2023-03-11T23:25:56.073Z,0.8
2023-03-11T23:28:43.871Z,0.9
2023-03-11T23:31:31.601Z,0.9
2023-03-11T23:34:19.245Z,0.9
2023-03-11T23:37:06.911Z,0.9
2023-03-11T23:39:54.653Z,0.9
2023-03-11T23:42:53.872Z,0.8
2023-03-11T23:45:41.830Z,0.9
2023-03-11T23:48:29.513Z,0.9
2023-03-11T23:51:17.126Z,0.9
2023-03-11T23:54:04.823Z,1
2023-03-11T23:56:52.486Z,1
2023-03-11T23:59:40.210Z,1
